createdAt,value
2019-02-19T00:01:25.866Z,101712.97
2019-02-19T00:03:53.648Z,101700.74
2019-02-19T00:06:21.442Z,101704.61
2019-02-19T00:08:49.502Z,101703.64
2019-02-19T00:11:17.271Z,101700.55
2019-02-19T00:13:45.038Z,101700.05
2019-02-19T00:16:15.841Z,101704.70
2019-02-19T00:18:43.935Z,101709.75
2019-02-19T00:21:11.694Z,101719.06
2019-02-19T00:23:39.526Z,101715.83
2019-02-19T00:26:18.099Z,101713.58
2019-02-19T00:28:46.148Z,101717.48
2019-02-19T00:31:13.959Z,101716.62
2019-02-19T00:33:41.895Z,101723.09
2019-02-19T00:36:09.711Z,101720.11
2019-02-19T00:38:37.543Z,101726.30
2019-02-19T00:41:07.342Z,101726.61
2019-02-19T00:43:35.519Z,101727.83
2019-02-19T00:46:03.761Z,101729.03
2019-02-19T00:48:33.518Z,101723.56
2019-02-19T00:51:01.447Z,101735.77
2019-02-19T00:53:29.260Z,101734.11
2019-02-19T00:55:57.336Z,101726.84
2019-02-19T00:58:25.204Z,101727.52
2019-02-19T01:00:53.063Z,101733.53
2019-02-19T01:03:23.492Z,101727.02
2019-02-19T01:05:54.761Z,101729.97
2019-02-19T01:08:22.655Z,101729.16
2019-02-19T01:10:52.451Z,101735.28
2019-02-19T01:13:20.534Z,101736.39
2019-02-19T01:15:48.596Z,101735.97
2019-02-19T01:18:16.793Z,101737.91
2019-02-19T01:20:46.587Z,101734.88
2019-02-19T01:23:14.397Z,101726.00
2019-02-19T01:25:42.255Z,101731.31
2019-02-19T01:28:10.196Z,101740.72
2019-02-19T01:30:38.302Z,101733.13
2019-02-19T01:33:06.154Z,101733.44
2019-02-19T01:35:34.448Z,101745.63
2019-02-19T01:38:02.307Z,101731.22
2019-02-19T01:40:30.217Z,101733.03
2019-02-19T01:42:58.679Z,101730.86
2019-02-19T01:45:33.915Z,101739.20
2019-02-19T01:47:58.940Z,101731.00
2019-02-19T01:50:26.728Z,101731.37
2019-02-19T01:52:54.676Z,101731.02
2019-02-19T01:55:22.520Z,101718.37
2019-02-19T01:57:50.384Z,101736.09
2019-02-19T02:00:18.367Z,101721.23
2019-02-19T02:02:46.439Z,101717.44
2019-02-19T02:05:14.335Z,101721.51
2019-02-19T02:07:43.337Z,101719.73
2019-02-19T02:10:11.325Z,101718.25
2019-02-19T02:12:39.355Z,101726.16
2019-02-19T02:15:07.443Z,101720.42
2019-02-19T02:17:35.397Z,101726.93
2019-02-19T02:20:03.784Z,101730.57
2019-02-19T02:22:31.754Z,101725.04
2019-02-19T02:24:59.546Z,101718.27
2019-02-19T02:27:27.311Z,101724.17
2019-02-19T02:29:55.267Z,101723.86
2019-02-19T02:32:23.171Z,101726.23
2019-02-19T02:34:51.167Z,101722.54
2019-02-19T02:37:19.191Z,101723.66
2019-02-19T02:39:48.056Z,101726.16
2019-02-19T02:42:16.037Z,101723.08
2019-02-19T02:44:43.936Z,101713.22
2019-02-19T02:47:12.106Z,101732.40
2019-02-19T02:49:39.884Z,101725.34
2019-02-19T02:52:07.643Z,101732.17
2019-02-19T02:54:35.612Z,101735.28
2019-02-19T02:57:03.420Z,101736.92
2019-02-19T02:59:31.358Z,101743.40
2019-02-19T03:01:59.131Z,101738.78
2019-02-19T03:04:26.921Z,101733.57
2019-02-19T03:07:14.931Z,101732.01
2019-02-19T03:09:42.707Z,101737.02
2019-02-19T03:12:10.477Z,101735.59
2019-02-19T03:14:38.411Z,101713.90
2019-02-19T03:17:06.198Z,101714.59
2019-02-19T03:19:33.977Z,101729.56
2019-02-19T03:22:01.957Z,101731.92
2019-02-19T03:24:29.749Z,101735.15
2019-02-19T03:26:57.536Z,101721.33
2019-02-19T03:29:25.486Z,101734.38
2019-02-19T03:31:53.239Z,101731.78
2019-02-19T03:34:21.418Z,101722.93
2019-02-19T03:36:49.191Z,101709.47
2019-02-19T03:39:17.150Z,101712.16
2019-02-19T03:41:44.909Z,101728.67
2019-02-19T03:44:12.668Z,101732.27
2019-02-19T03:46:40.671Z,101733.95
2019-02-19T03:49:08.429Z,101750.30
2019-02-19T03:51:36.192Z,101751.65
2019-02-19T03:54:04.069Z,101752.77
2019-02-19T03:56:32.046Z,101754.67
2019-02-19T03:59:00.019Z,101756.72
2019-02-19T04:01:27.892Z,101754.63
2019-02-19T04:03:55.661Z,101757.73
2019-02-19T04:06:23.654Z,101754.53
2019-02-19T04:08:51.465Z,101762.94
2019-02-19T04:11:19.449Z,101765.37
2019-02-19T04:13:47.422Z,101760.44
2019-02-19T04:16:20.966Z,101762.17
2019-02-19T04:18:45.039Z,101769.64
2019-02-19T04:21:12.807Z,101776.90
2019-02-19T04:23:40.784Z,101778.91
2019-02-19T04:26:08.549Z,101772.88
2019-02-19T04:28:36.522Z,101773.35
2019-02-19T04:31:04.493Z,101771.84
2019-02-19T04:33:32.464Z,101774.86
2019-02-19T04:36:00.544Z,101772.55
2019-02-19T04:38:28.317Z,101776.92
2019-02-19T04:40:56.283Z,101777.84
2019-02-19T04:43:24.097Z,101779.53
2019-02-19T04:45:51.923Z,101780.95
2019-02-19T04:48:21.739Z,101778.47
2019-02-19T04:50:49.516Z,101771.92
2019-02-19T04:53:17.302Z,101776.97
2019-02-19T04:55:45.253Z,101770.79
2019-02-19T04:58:13.032Z,101771.63
2019-02-19T05:00:40.854Z,101775.75
2019-02-19T05:03:08.870Z,101774.53
2019-02-19T05:05:36.845Z,101779.57
2019-02-19T05:08:05.836Z,101776.59
2019-02-19T05:10:33.807Z,101780.64
2019-02-19T05:13:01.783Z,101780.77
2019-02-19T05:15:29.683Z,101766.98
2019-02-19T05:18:02.953Z,101777.41
2019-02-19T05:20:30.785Z,101789.59
2019-02-19T05:22:58.695Z,101784.88
2019-02-19T05:25:26.527Z,101790.21
2019-02-19T05:27:54.437Z,101793.23
2019-02-19T05:30:24.152Z,101784.56
2019-02-19T05:32:53.178Z,101787.58
2019-02-19T05:35:20.965Z,101792.66
2019-02-19T05:37:48.900Z,101789.11
2019-02-19T05:40:16.671Z,101785.77
2019-02-19T05:42:44.491Z,101777.95
2019-02-19T05:45:12.623Z,101799.34
2019-02-19T05:47:40.423Z,101802.30
2019-02-19T05:50:09.520Z,101808.89
2019-02-19T05:52:37.317Z,101791.51
2019-02-19T05:55:05.888Z,101803.17
2019-02-19T05:57:34.924Z,101810.34
2019-02-19T06:00:03.362Z,101808.69
2019-02-19T06:02:31.281Z,101813.16
2019-02-19T06:04:59.041Z,101812.20
2019-02-19T06:07:27.017Z,101814.66
2019-02-19T06:09:54.799Z,101816.80
2019-02-19T06:12:22.614Z,101823.63
2019-02-19T06:14:51.660Z,101825.84
2019-02-19T06:17:19.636Z,101827.29
2019-02-19T06:19:47.605Z,101824.75
2019-02-19T06:22:15.583Z,101829.39
2019-02-19T06:24:43.559Z,101831.96
2019-02-19T06:27:11.475Z,101832.28
2019-02-19T06:29:40.478Z,101824.86
2019-02-19T06:32:08.270Z,101834.49
2019-02-19T06:34:36.370Z,101840.75
2019-02-19T06:37:04.282Z,101844.12
2019-02-19T06:39:32.222Z,101849.39
2019-02-19T06:42:00.013Z,101849.39
2019-02-19T06:44:28.003Z,101842.38
2019-02-19T06:46:55.949Z,101853.36
2019-02-19T06:49:23.697Z,101859.72
2019-02-19T06:51:53.558Z,101859.53
2019-02-19T06:54:21.487Z,101853.39
2019-02-19T06:56:49.253Z,101861.71
2019-02-19T06:59:17.233Z,101865.45
2019-02-19T07:02:03.651Z,101865.28
2019-02-19T07:04:36.762Z,101864.89
2019-02-19T07:07:04.543Z,101878.35
2019-02-19T07:09:32.311Z,101872.89
2019-02-19T07:12:00.342Z,101876.75
2019-02-19T07:14:29.230Z,101883.19
2019-02-19T07:16:57.000Z,101892.86
2019-02-19T07:19:24.974Z,101905.61
2019-02-19T07:21:52.745Z,101910.00
2019-02-19T07:24:20.709Z,101905.67
2019-02-19T07:26:48.490Z,101909.48
2019-02-19T07:29:16.469Z,101902.08
2019-02-19T07:31:44.580Z,101904.06
2019-02-19T07:34:12.349Z,101908.28
2019-02-19T07:36:40.369Z,101906.82
2019-02-19T07:39:08.443Z,101912.47
2019-02-19T07:41:36.212Z,101912.02
2019-02-19T07:44:04.294Z,101914.72
2019-02-19T07:46:32.298Z,101915.50
2019-02-19T07:49:00.084Z,101914.00
2019-02-19T07:51:28.003Z,101918.02
2019-02-19T07:54:00.388Z,101918.65
2019-02-19T07:56:28.157Z,101921.74
2019-02-19T07:58:56.127Z,101922.34
2019-02-19T08:01:23.891Z,101924.17
2019-02-19T08:03:51.820Z,101924.94
2019-02-19T08:06:19.736Z,101927.55
2019-02-19T08:08:47.512Z,101929.58
2019-02-19T08:11:15.480Z,101933.66
2019-02-19T08:13:43.258Z,101933.38
2019-02-19T08:16:11.044Z,101939.22
2019-02-19T08:18:38.986Z,101941.43
2019-02-19T08:21:06.762Z,101951.70
2019-02-19T08:23:34.565Z,101953.08
2019-02-19T08:26:02.496Z,101940.98
2019-02-19T08:28:30.885Z,101956.17
2019-02-19T08:30:58.675Z,101952.86
2019-02-19T08:33:28.503Z,101955.70
2019-02-19T08:35:56.257Z,101957.00
2019-02-19T08:38:24.036Z,101961.19
2019-02-19T08:40:51.980Z,101964.75
2019-02-19T08:43:19.751Z,101970.50
2019-02-19T08:45:47.526Z,101966.74
2019-02-19T08:48:15.486Z,101951.38
2019-02-19T08:50:43.244Z,101965.70
2019-02-19T08:53:11.229Z,101973.10
2019-02-19T08:55:39.031Z,101971.16
2019-02-19T08:58:06.985Z,101977.70
2019-02-19T09:00:34.997Z,101973.03
2019-02-19T09:03:02.829Z,101961.98
2019-02-19T09:05:30.794Z,101978.98
2019-02-19T09:07:58.593Z,101979.31
2019-02-19T09:10:26.476Z,101965.54
2019-02-19T09:12:54.377Z,101987.58
2019-02-19T09:15:22.143Z,101981.42
2019-02-19T09:17:52.239Z,101988.66
2019-02-19T09:20:19.752Z,101983.16
2019-02-19T09:22:47.738Z,101987.03
2019-02-19T09:25:15.514Z,101994.48
2019-02-19T09:27:43.479Z,101987.58
2019-02-19T09:30:12.223Z,101992.28
2019-02-19T09:32:40.147Z,101988.45
2019-02-19T09:35:08.234Z,101990.31
2019-02-19T09:37:36.188Z,101983.29
2019-02-19T09:40:06.590Z,101982.97
2019-02-19T09:42:34.526Z,101996.78
2019-02-19T09:45:02.470Z,101995.17
2019-02-19T09:47:30.400Z,101998.42
2019-02-19T09:49:58.309Z,101999.83
2019-02-19T09:52:26.339Z,102010.33
2019-02-19T09:54:54.120Z,102018.56
2019-02-19T09:57:22.031Z,102003.03
2019-02-19T09:59:49.999Z,102020.41
2019-02-19T10:02:17.776Z,102017.17
2019-02-19T10:04:45.573Z,102014.35
2019-02-19T10:07:13.499Z,102025.29
2019-02-19T10:09:41.280Z,102016.30
2019-02-19T10:12:09.052Z,102025.54
2019-02-19T10:14:37.333Z,102026.03
2019-02-19T10:17:05.132Z,102025.89
2019-02-19T10:19:32.942Z,102030.54
2019-02-19T10:22:00.945Z,102031.40
2019-02-19T10:24:29.844Z,102032.14
2019-02-19T10:26:57.691Z,102031.46
2019-02-19T10:29:25.679Z,102029.84
2019-02-19T10:31:53.450Z,102032.44
2019-02-19T10:34:21.373Z,102032.39
2019-02-19T10:36:49.295Z,102040.34
2019-02-19T10:39:17.064Z,102032.80
2019-02-19T10:41:44.863Z,102039.45
2019-02-19T10:44:12.812Z,102035.54
2019-02-19T10:46:40.808Z,102035.95
2019-02-19T10:49:08.753Z,102037.63
2019-02-19T10:51:36.728Z,102037.52
2019-02-19T10:54:04.502Z,102039.88
2019-02-19T10:56:32.290Z,102034.08
2019-02-19T10:59:00.240Z,102042.63
2019-02-19T11:01:28.004Z,102041.94
2019-02-19T11:03:55.785Z,102042.89
2019-02-19T11:06:23.757Z,102031.91
2019-02-19T11:08:51.672Z,102037.67
2019-02-19T11:11:19.448Z,102037.66
2019-02-19T11:13:47.363Z,102036.34
2019-02-19T11:16:15.135Z,102035.09
2019-02-19T11:18:43.164Z,102041.80
2019-02-19T11:21:19.053Z,102038.48
2019-02-19T11:23:40.622Z,102040.63
2019-02-19T11:26:08.591Z,102041.22
2019-02-19T11:28:36.368Z,102038.66
2019-02-19T11:31:04.266Z,102036.70
2019-02-19T11:33:35.231Z,102042.59
2019-02-19T11:36:03.070Z,102040.63
2019-02-19T11:38:30.858Z,102039.61
2019-02-19T11:40:58.751Z,102040.17
2019-02-19T11:43:26.540Z,102033.02
2019-02-19T11:45:54.364Z,102042.35
2019-02-19T11:48:22.271Z,102040.42
2019-02-19T11:50:50.076Z,102035.69
2019-02-19T11:53:17.878Z,102032.78
2019-02-19T11:55:45.887Z,102036.78
2019-02-19T11:58:13.681Z,102033.04
2019-02-19T12:00:41.965Z,102029.09
2019-02-19T12:03:09.756Z,102028.47
2019-02-19T12:05:37.879Z,102026.35
2019-02-19T12:08:05.652Z,102042.56
2019-02-19T12:10:33.570Z,102030.52
2019-02-19T12:13:01.509Z,102025.38
2019-02-19T12:15:35.290Z,102038.31
2019-02-19T12:17:59.002Z,102019.52
2019-02-19T12:20:27.080Z,102032.66
2019-02-19T12:22:54.878Z,102040.19
2019-02-19T12:25:22.673Z,102035.31
2019-02-19T12:27:50.565Z,102036.92
2019-02-19T12:30:18.517Z,102035.53
2019-02-19T12:32:46.293Z,102036.20
2019-02-19T12:35:15.863Z,102037.66
2019-02-19T12:37:43.794Z,102038.27
2019-02-19T12:40:11.865Z,102039.22
2019-02-19T12:42:39.811Z,102035.59
2019-02-19T12:45:09.927Z,102032.75
2019-02-19T12:47:37.836Z,102034.05
2019-02-19T12:50:08.412Z,102041.84
2019-02-19T12:52:36.202Z,102033.33
2019-02-19T12:55:04.569Z,102041.62
2019-02-19T12:57:32.349Z,102035.50
2019-02-19T13:00:00.217Z,102033.13
2019-02-19T13:02:28.239Z,102037.85
2019-02-19T13:04:56.221Z,102049.30
2019-02-19T13:07:24.085Z,102036.53
2019-02-19T13:09:53.999Z,102049.11
2019-02-19T13:12:21.777Z,102046.02
2019-02-19T13:14:49.746Z,102047.09
2019-02-19T13:17:17.540Z,102051.34
2019-02-19T13:19:45.488Z,102043.30
2019-02-19T13:22:13.287Z,102045.84
2019-02-19T13:24:43.151Z,102043.80
2019-02-19T13:27:11.148Z,102046.93
2019-02-19T13:29:39.032Z,102050.67
2019-02-19T13:32:07.047Z,102056.63
2019-02-19T13:34:35.139Z,102049.16
2019-02-19T13:37:02.974Z,102052.28
2019-02-19T13:39:30.916Z,102052.97
2019-02-19T13:41:58.890Z,102049.91
2019-02-19T13:44:26.697Z,102055.25
2019-02-19T13:46:56.271Z,102059.91
2019-02-19T13:49:24.237Z,102059.47
2019-02-19T13:51:53.913Z,102056.48
2019-02-19T13:54:29.761Z,102054.76
2019-02-19T13:56:57.709Z,102056.02
2019-02-19T13:59:25.501Z,102061.55
2019-02-19T14:01:53.420Z,102064.08
2019-02-19T14:04:21.396Z,102063.73
2019-02-19T14:06:49.199Z,102060.50
2019-02-19T14:09:17.170Z,102066.21
2019-02-19T14:11:45.119Z,102065.80
2019-02-19T14:14:36.614Z,102059.73
2019-02-19T14:17:07.376Z,102061.78
2019-02-19T14:20:00.892Z,102070.35
2019-02-19T14:22:47.104Z,102068.86
2019-02-19T14:25:33.429Z,102067.34
2019-02-19T14:28:19.796Z,102066.27
2019-02-19T14:31:15.903Z,102063.33
2019-02-19T14:34:09.381Z,102073.05
2019-02-19T14:37:01.096Z,102070.19
2019-02-19T14:39:48.696Z,102074.14
2019-02-19T14:42:51.183Z,102068.98
2019-02-19T14:45:41.796Z,102072.36
2019-02-19T14:48:28.310Z,102080.45
2019-02-19T14:51:25.083Z,102069.76
2019-02-19T14:54:01.870Z,102066.64
2019-02-19T14:56:55.508Z,102070.86
2019-02-19T14:59:39.587Z,102077.77
2019-02-19T15:02:26.961Z,102086.13
2019-02-19T15:05:13.384Z,102076.39
2019-02-19T15:08:02.774Z,102072.14
2019-02-19T15:10:49.138Z,102073.67
2019-02-19T15:13:35.399Z,102068.38
2019-02-19T15:16:13.298Z,102072.30
2019-02-19T15:19:06.723Z,102070.70
2019-02-19T15:21:54.280Z,102089.69
2019-02-19T15:24:44.841Z,102087.66
2019-02-19T15:27:21.348Z,102089.28
2019-02-19T15:30:06.630Z,102084.80
2019-02-19T15:32:52.889Z,102084.03
2019-02-19T15:35:43.275Z,102085.56
2019-02-19T15:38:19.947Z,102094.58
2019-02-19T15:40:56.642Z,102085.49
2019-02-19T15:43:28.922Z,102087.77
2019-02-19T15:46:18.775Z,102089.56
2019-02-19T15:49:04.690Z,102098.19
2019-02-19T15:52:04.169Z,102093.48
2019-02-19T15:54:48.488Z,102095.56
2019-02-19T15:57:34.506Z,102095.56
2019-02-19T16:00:21.580Z,102105.01
2019-02-19T16:03:09.077Z,102099.95
2019-02-19T16:05:57.041Z,102102.89
2019-02-19T16:08:50.606Z,102101.70
2019-02-19T16:11:33.901Z,102104.22
2019-02-19T16:14:27.516Z,102108.92
2019-02-19T16:17:20.028Z,102112.53
2019-02-19T16:20:06.402Z,102098.55
2019-02-19T16:22:56.882Z,102105.36
2019-02-19T16:25:43.137Z,102097.47
2019-02-19T16:28:30.513Z,102108.08
2019-02-19T16:31:05.746Z,102094.64
2019-02-19T16:33:41.166Z,102104.90
2019-02-19T16:36:23.780Z,102100.70
2019-02-19T16:38:59.202Z,102104.25
2019-02-19T16:41:46.679Z,102100.80
2019-02-19T16:44:29.959Z,102104.75
2019-02-19T16:47:29.274Z,102104.53
2019-02-19T16:50:12.876Z,102110.45
2019-02-19T16:53:00.373Z,102110.36
2019-02-19T16:55:47.758Z,102111.57
2019-02-19T16:58:27.143Z,102117.09
2019-02-19T17:01:02.733Z,102119.50
2019-02-19T17:03:49.598Z,102120.25
2019-02-19T17:06:28.425Z,102118.81
2019-02-19T17:09:14.642Z,102124.44
2019-02-19T17:12:00.997Z,102110.87
2019-02-19T17:14:48.389Z,102117.70
2019-02-19T17:17:41.616Z,102121.94
2019-02-19T17:20:38.117Z,102122.07
2019-02-19T17:23:31.478Z,102124.97
2019-02-19T17:26:09.757Z,102125.81
2019-02-19T17:28:45.809Z,102123.34
2019-02-19T17:31:26.700Z,102113.07
2019-02-19T17:34:20.167Z,102125.01
2019-02-19T17:37:16.485Z,102122.95
2019-02-19T17:39:53.533Z,102125.28
2019-02-19T17:42:37.397Z,102131.02
2019-02-19T17:45:37.989Z,102134.53
2019-02-19T17:48:25.374Z,102142.05
2019-02-19T17:51:11.267Z,102138.11
2019-02-19T17:53:58.678Z,102135.03
2019-02-19T17:56:48.671Z,102139.20
2019-02-19T17:59:26.403Z,102137.18
2019-02-19T18:02:14.197Z,102136.85
2019-02-19T18:04:57.642Z,102138.14
2019-02-19T18:07:43.609Z,102142.41
2019-02-19T18:10:27.469Z,102145.09
2019-02-19T18:13:13.320Z,102150.24
2019-02-19T18:15:59.507Z,102148.34
2019-02-19T18:18:33.427Z,102155.46
2019-02-19T18:21:01.225Z,102158.31
2019-02-19T18:23:30.135Z,102154.41
2019-02-19T18:25:58.263Z,102157.90
2019-02-19T18:28:26.074Z,102154.91
2019-02-19T18:30:53.857Z,102166.36
2019-02-19T18:33:21.733Z,102161.56
2019-02-19T18:35:49.525Z,102163.25
2019-02-19T18:38:18.860Z,102170.95
2019-02-19T18:40:46.652Z,102171.63
2019-02-19T18:43:14.411Z,102171.97
2019-02-19T18:45:42.357Z,102177.02
2019-02-19T18:48:10.259Z,102186.78
2019-02-19T18:50:38.225Z,102174.36
2019-02-19T18:53:06.332Z,102181.03
2019-02-19T18:55:34.122Z,102181.50
2019-02-19T18:58:02.235Z,102178.89
2019-02-19T19:00:30.207Z,102177.05
2019-02-19T19:02:57.999Z,102171.24
2019-02-19T19:05:25.960Z,102177.47
2019-02-19T19:07:54.038Z,102185.83
2019-02-19T19:10:21.992Z,102183.69
2019-02-19T19:12:49.973Z,102183.77
2019-02-19T19:15:17.946Z,102180.70
2019-02-19T19:17:45.985Z,102186.19
2019-02-19T19:20:13.793Z,102189.16
2019-02-19T19:22:41.858Z,102183.84
2019-02-19T19:25:09.831Z,102168.91
2019-02-19T19:27:37.751Z,102183.91
2019-02-19T19:30:08.003Z,102177.97
2019-02-19T19:32:35.935Z,102180.80
2019-02-19T19:35:04.507Z,102172.75
2019-02-19T19:37:32.374Z,102173.90
2019-02-19T19:40:00.351Z,102161.61
2019-02-19T19:42:28.150Z,102169.33
2019-02-19T19:44:55.905Z,102172.25
2019-02-19T19:47:23.805Z,102168.49
2019-02-19T19:49:51.710Z,102169.95
2019-02-19T19:52:19.723Z,102166.08
2019-02-19T19:54:51.186Z,102180.14
2019-02-19T19:57:18.974Z,102176.36
2019-02-19T19:59:46.919Z,102183.15
2019-02-19T20:02:14.898Z,102181.95
2019-02-19T20:04:42.933Z,102176.70
2019-02-19T20:07:10.752Z,102172.63
2019-02-19T20:09:38.695Z,102179.42
2019-02-19T20:12:06.500Z,102174.48
2019-02-19T20:14:34.266Z,102176.20
2019-02-19T20:17:02.198Z,102172.30
2019-02-19T20:19:29.998Z,102178.08
2019-02-19T20:21:57.883Z,102162.73
2019-02-19T20:24:25.923Z,102175.81
2019-02-19T20:26:53.689Z,102181.27
2019-02-19T20:29:21.765Z,102180.42
2019-02-19T20:31:49.629Z,102177.36
2019-02-19T20:34:17.604Z,102162.04
2019-02-19T20:36:45.413Z,102175.36
2019-02-19T20:39:13.202Z,102176.09
2019-02-19T20:41:41.210Z,102179.91
2019-02-19T20:44:09.004Z,102185.33
2019-02-19T20:46:36.962Z,102185.47
2019-02-19T20:49:04.743Z,102186.66
2019-02-19T20:51:36.315Z,102183.73
2019-02-19T20:54:02.411Z,102192.35
2019-02-19T20:56:30.667Z,102189.33
2019-02-19T20:59:02.510Z,102187.86
2019-02-19T21:01:30.563Z,102185.84
2019-02-19T21:03:59.827Z,102184.66
2019-02-19T21:06:27.822Z,102193.33
2019-02-19T21:08:55.625Z,102192.68
2019-02-19T21:11:23.443Z,102196.75
2019-02-19T21:13:51.418Z,102198.61
2019-02-19T21:16:38.873Z,102196.13
2019-02-19T21:19:06.728Z,102197.77
2019-02-19T21:21:34.662Z,102199.71
2019-02-19T21:24:02.703Z,102201.22
2019-02-19T21:26:32.102Z,102199.39
2019-02-19T21:29:00.076Z,102203.62
2019-02-19T21:31:27.871Z,102194.11
2019-02-19T21:33:55.879Z,102197.44
2019-02-19T21:36:23.731Z,102193.36
2019-02-19T21:38:52.514Z,102194.41
2019-02-19T21:41:20.428Z,102194.88
2019-02-19T21:43:48.256Z,102196.23
2019-02-19T21:46:16.401Z,102199.52
2019-02-19T21:48:48.170Z,102197.30
2019-02-19T21:51:14.261Z,102201.56
2019-02-19T21:53:42.228Z,102202.23
2019-02-19T21:56:10.194Z,102205.50
2019-02-19T21:58:37.982Z,102206.44
2019-02-19T22:01:07.348Z,102207.95
2019-02-19T22:03:35.504Z,102205.73
2019-02-19T22:06:03.435Z,102209.64
2019-02-19T22:08:31.197Z,102214.62
2019-02-19T22:11:00.297Z,102212.28
2019-02-19T22:13:29.120Z,102207.73
2019-02-19T22:15:56.942Z,102210.02
2019-02-19T22:18:24.930Z,102206.73
2019-02-19T22:21:04.077Z,102211.31
2019-02-19T22:23:32.055Z,102202.92
2019-02-19T22:25:59.850Z,102204.55
2019-02-19T22:28:27.700Z,102207.08
2019-02-19T22:30:55.664Z,102206.68
2019-02-19T22:33:23.516Z,102200.95
2019-02-19T22:35:52.577Z,102205.59
2019-02-19T22:38:20.606Z,102202.38
2019-02-19T22:40:55.256Z,102209.28
2019-02-19T22:43:19.639Z,102207.31
2019-02-19T22:45:47.522Z,102199.69
2019-02-19T22:48:15.810Z,102203.20
2019-02-19T22:50:43.692Z,102197.98
2019-02-19T22:53:29.914Z,102198.87
2019-02-19T22:56:03.748Z,102203.37
2019-02-19T22:58:31.638Z,102205.66
2019-02-19T23:01:28.436Z,102204.58
2019-02-19T23:03:56.736Z,102207.27
2019-02-19T23:06:24.558Z,102203.06
2019-02-19T23:08:52.573Z,102195.11
2019-02-19T23:11:20.536Z,102201.28
2019-02-19T23:13:48.331Z,102199.16
2019-02-19T23:16:16.115Z,102202.49
2019-02-19T23:18:44.144Z,102200.19
2019-02-19T23:21:11.914Z,102198.78
2019-02-19T23:23:39.904Z,102200.27
2019-02-19T23:26:07.664Z,102202.06
2019-02-19T23:28:35.422Z,102199.87
2019-02-19T23:31:03.400Z,102192.53
2019-02-19T23:33:31.368Z,102193.23
2019-02-19T23:36:06.419Z,102194.78
2019-02-19T23:38:35.498Z,102205.11
2019-02-19T23:41:03.476Z,102209.39
2019-02-19T23:43:31.251Z,102205.75
2019-02-19T23:45:59.048Z,102204.23
2019-02-19T23:48:27.322Z,102205.58
2019-02-19T23:50:55.324Z,102206.14
2019-02-19T23:53:23.109Z,102209.12
2019-02-19T23:55:51.232Z,102208.21
2019-02-19T23:58:19.194Z,102204.67
